Vankleek Hill, Canada
Current Conditions -  °F | °C
As of 2:24 PM on Friday 28 Nov 2014 (Local Time) from CYMX Reporting Station
Snow Showers Snow Showers  
Wind Chill: 15°   Ceiling: 3900
Heat Index: 25°   Visibility: 25mi
Dew Point: 12°   Wind: 10mph
Humidity: 59%   Direction: 250°WSW
Pressure: 30.09"   Gusts: 18mph
Location:  45.52°N, 74.65°W
Report Text: CYMX 281924Z 25009G16KT 200V270 25SM -SHSN FEW024 BKN039 M04/M11 A3009 RMK SC1SC7 SC TR SLP196
Loading
Personal Weather Stations






























Interactive Weather Map New forecast layout! Learn more

10-Day Weather Forecast

Advertisements
Track Severe Weather on mobile